createdAt,value
2023-05-21T00:01:56.778Z,2.17
2023-05-21T00:04:25.756Z,2.13
2023-05-21T00:06:52.712Z,2.15
2023-05-21T00:09:19.700Z,2.00
2023-05-21T00:11:46.639Z,2.60
2023-05-21T00:14:13.617Z,2.30
2023-05-21T00:16:40.928Z,2.40
2023-05-21T00:19:08.395Z,2.20
2023-05-21T00:21:35.330Z,2.33
2023-05-21T00:24:02.284Z,2.45
2023-05-21T00:26:29.263Z,2.00
2023-05-21T00:28:56.590Z,2.20
2023-05-21T00:31:23.579Z,2.28
2023-05-21T00:33:50.899Z,2.08
2023-05-21T00:36:17.932Z,2.47
2023-05-21T00:38:45.967Z,2.38
2023-05-21T00:41:13.773Z,1.95
2023-05-21T00:43:40.769Z,2.22
2023-05-21T00:46:09.576Z,2.58
2023-05-21T00:48:36.652Z,2.38
2023-05-21T00:51:04.124Z,1.90
2023-05-21T00:53:31.603Z,2.33
2023-05-21T00:55:58.654Z,2.50
2023-05-21T00:58:25.834Z,2.30
2023-05-21T01:00:55.955Z,2.20
2023-05-21T01:03:23.922Z,2.60
2023-05-21T01:05:53.411Z,2.17
2023-05-21T01:08:21.917Z,2.30
2023-05-21T01:10:50.129Z,2.47
2023-05-21T01:13:17.892Z,2.55
2023-05-21T01:15:46.132Z,2.50
2023-05-21T01:18:14.478Z,2.20
2023-05-21T01:20:42.703Z,2.63
2023-05-21T01:23:09.875Z,2.72
2023-05-21T01:25:37.064Z,2.60
2023-05-21T01:28:04.292Z,2.70
2023-05-21T01:30:31.373Z,2.50
2023-05-21T01:33:15.371Z,2.80
2023-05-21T01:35:50.258Z,3.10
2023-05-21T01:38:42.929Z,2.70
2023-05-21T01:41:14.333Z,2.83
2023-05-21T01:43:44.366Z,2.58
2023-05-21T01:46:16.269Z,2.60
2023-05-21T01:48:44.557Z,3.05
2023-05-21T01:51:12.268Z,2.80
2023-05-21T01:53:40.757Z,3.30
2023-05-21T01:56:08.064Z,3.80
2023-05-21T01:58:35.076Z,3.63
2023-05-21T02:01:02.942Z,3.65
2023-05-21T02:03:31.344Z,3.08
2023-05-21T02:05:58.597Z,3.47
2023-05-21T02:08:27.322Z,3.30
2023-05-21T02:10:54.473Z,2.55
2023-05-21T02:13:25.155Z,2.80
2023-05-21T02:15:54.946Z,2.90
2023-05-21T02:18:22.279Z,2.55
2023-05-21T02:20:49.211Z,3.05
2023-05-21T02:23:16.304Z,2.92
2023-05-21T02:25:44.047Z,3.10
2023-05-21T02:28:10.967Z,2.88
2023-05-21T02:30:37.921Z,2.85
2023-05-21T02:33:04.924Z,2.63
2023-05-21T02:35:32.445Z,2.55
2023-05-21T02:37:59.633Z,3.30
2023-05-21T02:40:26.830Z,2.45
2023-05-21T02:42:53.823Z,2.80
2023-05-21T02:45:21.051Z,2.63
2023-05-21T02:47:48.036Z,2.70
2023-05-21T02:50:15.351Z,2.67
2023-05-21T02:52:42.363Z,2.90
2023-05-21T02:55:09.955Z,2.60
2023-05-21T02:57:36.934Z,2.75
2023-05-21T03:00:06.243Z,2.88
2023-05-21T03:02:33.386Z,2.88
2023-05-21T03:05:00.872Z,2.97
2023-05-21T03:07:28.026Z,3.20
2023-05-21T03:09:55.012Z,3.25
2023-05-21T03:12:21.962Z,2.88
2023-05-21T03:14:51.654Z,3.15
2023-05-21T03:17:19.044Z,2.60
2023-05-21T03:19:45.961Z,3.17
2023-05-21T03:22:12.906Z,3.25
2023-05-21T03:24:40.004Z,3.13
2023-05-21T03:27:07.550Z,3.25
2023-05-21T03:29:36.329Z,3.40
2023-05-21T03:32:03.796Z,3.10
2023-05-21T03:34:31.312Z,3.20
2023-05-21T03:36:58.392Z,3.47
2023-05-21T03:39:25.570Z,3.17
2023-05-21T03:41:52.461Z,3.30
2023-05-21T03:44:19.497Z,3.00
2023-05-21T03:46:46.520Z,2.92
2023-05-21T03:49:14.384Z,3.00
2023-05-21T03:51:41.406Z,3.28
2023-05-21T03:54:08.325Z,3.08
2023-05-21T03:56:35.202Z,3.08
2023-05-21T03:59:02.408Z,2.40
2023-05-21T04:01:29.442Z,2.80
2023-05-21T04:03:56.634Z,2.80
2023-05-21T04:06:23.752Z,2.25
2023-05-21T04:08:51.525Z,2.30
2023-05-21T04:11:18.451Z,2.65
2023-05-21T04:13:46.242Z,2.80
2023-05-21T04:16:14.884Z,2.67
2023-05-21T04:18:43.568Z,2.20
2023-05-21T04:21:12.987Z,2.65
2023-05-21T04:23:40.277Z,2.90
2023-05-21T04:26:07.997Z,2.28
2023-05-21T04:28:35.629Z,2.65
2023-05-21T04:31:02.900Z,2.40
2023-05-21T04:33:30.536Z,2.10
2023-05-21T04:35:58.077Z,2.35
2023-05-21T04:38:26.109Z,2.30
2023-05-21T04:40:53.558Z,2.67
2023-05-21T04:43:27.557Z,2.30
2023-05-21T04:45:55.190Z,2.28
2023-05-21T04:48:27.228Z,2.30
2023-05-21T04:50:54.457Z,2.30
2023-05-21T04:53:22.316Z,2.10
2023-05-21T04:55:49.334Z,2.50
2023-05-21T04:58:18.148Z,2.60
2023-05-21T05:00:51.691Z,2.25
2023-05-21T05:03:19.188Z,2.40
2023-05-21T05:05:47.594Z,2.13
2023-05-21T05:08:15.942Z,2.40
2023-05-21T05:10:43.298Z,1.85
2023-05-21T05:13:10.371Z,1.92
2023-05-21T05:15:37.518Z,1.80
2023-05-21T05:18:04.874Z,2.10
2023-05-21T05:20:31.833Z,2.15
2023-05-21T05:22:58.762Z,1.90
2023-05-21T05:25:26.390Z,2.10
2023-05-21T05:27:53.334Z,2.05
2023-05-21T05:30:21.010Z,2.00
2023-05-21T05:32:48.063Z,2.20
2023-05-21T05:35:18.056Z,1.90
2023-05-21T05:37:44.978Z,2.10
2023-05-21T05:40:12.206Z,1.90
2023-05-21T05:42:39.158Z,1.90
2023-05-21T05:45:06.825Z,1.90
2023-05-21T05:47:33.822Z,1.70
2023-05-21T05:50:00.905Z,1.80
2023-05-21T05:52:27.922Z,1.95
2023-05-21T05:54:54.901Z,1.92
2023-05-21T05:57:22.148Z,1.50
2023-05-21T05:59:49.061Z,1.83
2023-05-21T06:02:17.342Z,1.70
2023-05-21T06:04:44.515Z,1.92
2023-05-21T06:07:11.562Z,2.10
2023-05-21T06:09:39.175Z,1.80
2023-05-21T06:12:07.230Z,2.15
2023-05-21T06:14:34.236Z,1.80
2023-05-21T06:17:01.220Z,1.85
2023-05-21T06:19:28.303Z,1.73
2023-05-21T06:21:55.591Z,1.92
2023-05-21T06:24:22.594Z,1.90
2023-05-21T06:26:49.584Z,1.48
2023-05-21T06:29:17.191Z,1.50
2023-05-21T06:31:45.671Z,1.42
2023-05-21T06:34:12.672Z,1.50
2023-05-21T06:36:39.674Z,1.55
2023-05-21T06:39:07.039Z,1.70
2023-05-21T06:41:34.132Z,1.55
2023-05-21T06:44:01.148Z,1.50
2023-05-21T06:46:28.223Z,1.70
2023-05-21T06:48:55.256Z,1.30
2023-05-21T06:51:22.187Z,1.80
2023-05-21T06:53:49.360Z,1.60
2023-05-21T06:56:16.330Z,1.77
2023-05-21T06:58:43.260Z,1.60
2023-05-21T07:01:10.356Z,1.42
2023-05-21T07:03:37.563Z,1.58
2023-05-21T07:06:04.630Z,1.50
2023-05-21T07:08:31.771Z,1.55
2023-05-21T07:10:58.944Z,1.70
2023-05-21T07:13:26.085Z,1.50
2023-05-21T07:15:53.019Z,1.58
2023-05-21T07:18:19.978Z,1.80
2023-05-21T07:20:46.873Z,1.80
2023-05-21T07:23:13.861Z,1.60
2023-05-21T07:25:40.955Z,1.52
2023-05-21T07:28:07.882Z,1.70
2023-05-21T07:30:34.872Z,1.40
2023-05-21T07:33:01.862Z,1.30
2023-05-21T07:35:29.293Z,1.30
2023-05-21T07:37:56.502Z,1.52
2023-05-21T07:40:23.674Z,1.38
2023-05-21T07:42:50.862Z,1.52
2023-05-21T07:45:18.031Z,1.40
2023-05-21T07:47:46.900Z,1.30
2023-05-21T07:50:14.974Z,1.40
2023-05-21T07:52:42.010Z,1.30
2023-05-21T07:55:10.213Z,1.42
2023-05-21T07:57:37.407Z,1.60
2023-05-21T08:00:08.208Z,1.50
2023-05-21T08:05:02.451Z,1.40
2023-05-21T08:07:29.512Z,1.10
2023-05-21T08:09:56.630Z,1.30
2023-05-21T08:12:23.696Z,1.15
2023-05-21T08:14:50.637Z,1.50
2023-05-21T08:17:17.657Z,1.42
2023-05-21T08:19:44.667Z,1.33
2023-05-21T08:22:11.691Z,1.33
2023-05-21T08:24:38.591Z,1.30
2023-05-21T08:27:05.775Z,1.70
2023-05-21T08:29:33.282Z,1.50
2023-05-21T08:32:00.346Z,1.40
2023-05-21T08:34:27.397Z,1.60
2023-05-21T08:36:54.415Z,1.88
2023-05-21T08:39:21.718Z,1.27
2023-05-21T08:41:53.273Z,1.33
2023-05-21T08:44:22.919Z,1.30
2023-05-21T08:46:51.714Z,1.30
2023-05-21T08:49:26.371Z,1.35
2023-05-21T08:51:54.840Z,1.50
2023-05-21T08:54:23.063Z,1.42
2023-05-21T08:56:50.300Z,1.20
2023-05-21T08:59:19.990Z,1.27
2023-05-21T09:01:50.149Z,1.20
2023-05-21T09:04:21.228Z,1.33
2023-05-21T09:06:48.925Z,1.30
2023-05-21T09:09:40.542Z,1.48
2023-05-21T09:12:08.673Z,1.33
2023-05-21T09:14:37.389Z,1.10
2023-05-21T09:17:04.626Z,1.30
2023-05-21T09:19:32.491Z,1.55
2023-05-21T09:22:05.436Z,1.15
2023-05-21T09:24:34.447Z,1.33
2023-05-21T09:27:03.130Z,1.50
2023-05-21T09:29:30.112Z,1.05
2023-05-21T09:31:57.173Z,1.40
2023-05-21T09:34:25.630Z,1.40
2023-05-21T09:36:56.438Z,1.40
2023-05-21T09:39:30.227Z,1.38
2023-05-21T09:41:57.987Z,1.40
2023-05-21T09:44:24.960Z,1.50
2023-05-21T09:46:57.839Z,1.40
2023-05-21T09:49:26.589Z,1.30
2023-05-21T09:51:59.559Z,1.40
2023-05-21T09:54:32.498Z,1.25
2023-05-21T09:57:02.672Z,1.30
2023-05-21T09:59:37.040Z,1.40
2023-05-21T10:02:04.148Z,1.40
2023-05-21T10:04:32.131Z,1.50
2023-05-21T10:07:00.952Z,1.67
2023-05-21T10:09:29.783Z,1.48
2023-05-21T10:11:57.561Z,1.60
2023-05-21T10:14:27.902Z,1.27
2023-05-21T10:16:56.569Z,1.40
2023-05-21T10:19:25.018Z,1.50
2023-05-21T10:21:53.479Z,1.50
2023-05-21T10:24:20.943Z,1.50
2023-05-21T10:26:49.124Z,1.58
2023-05-21T10:29:18.891Z,1.70
2023-05-21T10:31:49.938Z,1.60
2023-05-21T10:34:17.631Z,1.67
2023-05-21T10:36:45.352Z,1.50
2023-05-21T10:39:14.829Z,1.63
2023-05-21T10:42:12.708Z,1.52
2023-05-21T10:44:54.410Z,1.50
2023-05-21T10:47:54.496Z,1.42
2023-05-21T10:50:41.064Z,1.25
2023-05-21T10:53:18.159Z,1.30
2023-05-21T10:55:48.348Z,1.50
2023-05-21T10:58:30.169Z,1.20
2023-05-21T11:00:59.169Z,1.42
2023-05-21T11:03:26.679Z,1.50
2023-05-21T11:05:57.154Z,1.42
2023-05-21T11:08:25.888Z,1.42
2023-05-21T11:10:54.930Z,1.60
2023-05-21T11:13:22.160Z,1.40
2023-05-21T11:15:58.497Z,1.50
2023-05-21T11:18:34.114Z,1.30
2023-05-21T11:21:14.416Z,1.30
2023-05-21T11:24:02.753Z,1.70
2023-05-21T11:26:52.330Z,1.50
2023-05-21T11:29:20.127Z,1.23
2023-05-21T11:31:49.289Z,1.50
2023-05-21T11:34:28.893Z,1.52
2023-05-21T11:37:23.382Z,1.45
2023-05-21T11:39:51.511Z,1.67
2023-05-21T11:42:31.929Z,1.20
2023-05-21T11:45:00.335Z,1.65
2023-05-21T11:47:28.876Z,1.33
2023-05-21T11:49:58.532Z,1.58
2023-05-21T11:52:27.022Z,1.63
2023-05-21T11:54:56.840Z,1.58
2023-05-21T11:57:30.692Z,1.90
2023-05-21T11:59:59.215Z,1.50
2023-05-21T12:02:28.668Z,1.42
2023-05-21T12:05:00.381Z,1.60
2023-05-21T12:07:31.377Z,1.50
2023-05-21T12:09:58.860Z,1.70
2023-05-21T12:12:35.293Z,1.30
2023-05-21T12:15:10.404Z,1.80
2023-05-21T12:17:37.459Z,1.65
2023-05-21T12:20:07.919Z,1.50
2023-05-21T12:22:34.839Z,1.50
2023-05-21T12:25:02.170Z,1.92
2023-05-21T12:27:31.931Z,1.70
2023-05-21T12:29:59.962Z,1.50
2023-05-21T12:32:28.534Z,1.50
2023-05-21T12:34:56.709Z,1.33
2023-05-21T12:37:25.649Z,1.67
2023-05-21T12:39:58.837Z,1.70
2023-05-21T12:42:30.841Z,1.80
2023-05-21T12:44:58.233Z,1.65
2023-05-21T12:47:26.809Z,1.70
2023-05-21T12:50:04.504Z,1.30
2023-05-21T12:52:31.540Z,1.55
2023-05-21T12:54:59.554Z,1.60
2023-05-21T12:57:28.499Z,1.65
2023-05-21T12:59:56.876Z,1.45
2023-05-21T13:02:47.942Z,1.88
2023-05-21T13:05:18.787Z,1.67
2023-05-21T13:07:51.666Z,1.85
2023-05-21T13:10:18.757Z,1.52
2023-05-21T13:12:46.213Z,1.60
2023-05-21T13:15:13.205Z,1.75
2023-05-21T13:17:40.216Z,1.80
2023-05-21T13:20:08.305Z,1.80
2023-05-21T13:22:39.142Z,1.85
2023-05-21T13:25:07.259Z,1.80
2023-05-21T13:27:34.261Z,1.45
2023-05-21T13:30:02.249Z,1.90
2023-05-21T13:32:29.384Z,1.77
2023-05-21T13:34:56.487Z,1.77
2023-05-21T13:37:23.441Z,1.50
2023-05-21T13:39:50.571Z,1.73
2023-05-21T13:42:17.580Z,1.90
2023-05-21T13:44:44.506Z,1.92
2023-05-21T13:47:12.214Z,1.73
2023-05-21T13:49:40.752Z,1.70
2023-05-21T13:52:08.686Z,2.10
2023-05-21T13:54:36.979Z,2.28
2023-05-21T13:57:04.138Z,1.85
2023-05-21T13:59:33.451Z,2.08
2023-05-21T14:02:01.206Z,1.92
2023-05-21T14:04:28.204Z,2.10
2023-05-21T14:06:55.621Z,1.90
2023-05-21T14:09:23.573Z,1.88
2023-05-21T14:11:50.960Z,1.90
2023-05-21T14:14:19.212Z,2.15
2023-05-21T14:16:47.420Z,1.83
2023-05-21T14:19:14.906Z,2.00
2023-05-21T14:21:42.204Z,1.98
2023-05-21T14:24:09.162Z,1.88
2023-05-21T14:26:40.103Z,1.98
2023-05-21T14:29:07.292Z,1.80
2023-05-21T14:31:34.358Z,1.85
2023-05-21T14:34:03.001Z,2.03
2023-05-21T14:36:31.187Z,2.13
2023-05-21T14:38:58.166Z,1.90
2023-05-21T14:41:28.474Z,2.00
2023-05-21T14:43:55.524Z,1.90
2023-05-21T14:46:22.568Z,2.00
2023-05-21T14:48:49.784Z,2.15
2023-05-21T14:51:16.906Z,1.95
2023-05-21T14:53:43.934Z,2.10
2023-05-21T14:56:11.001Z,2.00
2023-05-21T14:58:37.914Z,2.10
2023-05-21T15:01:05.300Z,2.08
2023-05-21T15:03:32.348Z,2.33
2023-05-21T15:05:59.338Z,2.30
2023-05-21T15:08:26.360Z,2.10
2023-05-21T15:10:53.310Z,2.13
2023-05-21T15:13:21.569Z,1.75
2023-05-21T15:15:49.552Z,1.73
2023-05-21T15:18:16.710Z,1.90
2023-05-21T15:20:44.725Z,2.35
2023-05-21T15:23:17.168Z,2.42
2023-05-21T15:25:45.642Z,2.40
2023-05-21T15:28:13.165Z,2.55
2023-05-21T15:30:40.429Z,2.35
2023-05-21T15:33:07.595Z,2.03
2023-05-21T15:35:38.412Z,2.30
2023-05-21T15:40:34.152Z,2.38
2023-05-21T15:43:01.186Z,2.03
2023-05-21T15:45:28.120Z,2.05
2023-05-21T15:47:55.089Z,2.35
2023-05-21T15:50:22.095Z,2.03
2023-05-21T15:52:50.387Z,1.90
2023-05-21T15:55:19.389Z,2.40
2023-05-21T15:57:46.329Z,2.05
2023-05-21T16:00:13.770Z,2.33
2023-05-21T16:02:42.000Z,1.92
2023-05-21T16:05:09.777Z,2.60
2023-05-21T16:07:38.314Z,2.38
2023-05-21T16:10:06.396Z,2.45
2023-05-21T16:12:34.959Z,2.40
2023-05-21T16:15:01.922Z,2.05
2023-05-21T16:17:28.860Z,2.38
2023-05-21T16:19:55.845Z,2.00
2023-05-21T16:22:23.952Z,1.90
2023-05-21T16:24:51.045Z,2.28
2023-05-21T16:27:18.050Z,2.58
2023-05-21T16:29:45.034Z,2.30
2023-05-21T16:32:13.983Z,1.92
2023-05-21T16:34:41.878Z,2.30
2023-05-21T16:37:09.846Z,2.38
2023-05-21T16:39:37.410Z,2.30
2023-05-21T16:42:04.567Z,2.42
2023-05-21T16:44:32.345Z,2.25
2023-05-21T16:47:00.294Z,2.60
2023-05-21T16:49:27.741Z,2.70
2023-05-21T16:51:54.844Z,2.40
2023-05-21T16:54:21.967Z,2.50
2023-05-21T16:56:49.097Z,2.80
2023-05-21T16:59:27.934Z,2.60
2023-05-21T17:01:58.344Z,2.60
2023-05-21T17:04:44.403Z,2.72
2023-05-21T17:07:13.803Z,3.13
2023-05-21T17:09:40.856Z,2.47
2023-05-21T17:12:13.232Z,2.90
2023-05-21T17:14:45.649Z,2.50
2023-05-21T17:17:12.737Z,2.58
2023-05-21T17:19:44.627Z,2.95
2023-05-21T17:22:14.895Z,2.85
2023-05-21T17:24:44.515Z,2.83
2023-05-21T17:27:11.540Z,2.90
2023-05-21T17:29:38.826Z,3.13
2023-05-21T17:32:06.559Z,2.85
2023-05-21T17:34:33.510Z,2.95
2023-05-21T17:37:00.629Z,3.40
2023-05-21T17:39:27.614Z,3.15
2023-05-21T17:41:56.613Z,3.20
2023-05-21T17:44:23.731Z,2.97
2023-05-21T17:46:51.101Z,3.33
2023-05-21T17:49:18.742Z,3.13
2023-05-21T17:51:45.842Z,3.00
2023-05-21T17:54:12.734Z,3.30
2023-05-21T17:56:39.754Z,3.40
2023-05-21T17:59:11.421Z,3.17
2023-05-21T18:01:39.840Z,2.90
2023-05-21T18:04:12.326Z,3.22
2023-05-21T18:06:40.083Z,2.90
2023-05-21T18:09:15.377Z,3.13
2023-05-21T18:11:44.609Z,3.00
2023-05-21T18:14:11.679Z,2.63
2023-05-21T18:16:40.111Z,2.50
2023-05-21T18:19:07.248Z,3.05
2023-05-21T18:21:35.394Z,2.90
2023-05-21T18:24:03.112Z,2.90
2023-05-21T18:26:30.406Z,3.35
2023-05-21T18:28:58.467Z,3.08
2023-05-21T18:31:25.991Z,2.83
2023-05-21T18:33:52.935Z,2.60
2023-05-21T18:36:19.850Z,3.03
2023-05-21T18:38:47.050Z,3.28
2023-05-21T18:41:13.994Z,3.75
2023-05-21T18:43:41.763Z,3.20
2023-05-21T18:46:08.809Z,3.20
2023-05-21T18:48:35.907Z,3.53
2023-05-21T18:51:02.963Z,3.50
2023-05-21T18:53:29.928Z,3.53
2023-05-21T18:55:56.815Z,3.50
2023-05-21T18:58:23.841Z,3.80
2023-05-21T19:00:51.285Z,4.00
2023-05-21T19:03:18.539Z,4.18
2023-05-21T19:05:45.693Z,4.15
2023-05-21T19:08:12.700Z,4.03
2023-05-21T19:10:40.031Z,3.97
2023-05-21T19:13:07.291Z,3.60
2023-05-21T19:15:34.457Z,3.22
2023-05-21T19:18:01.915Z,2.92
2023-05-21T19:20:29.241Z,2.80
2023-05-21T19:22:56.277Z,2.63
2023-05-21T19:25:23.600Z,3.60
2023-05-21T19:27:50.833Z,3.00
2023-05-21T19:30:17.964Z,3.03
2023-05-21T19:32:46.081Z,3.03
2023-05-21T19:35:13.129Z,3.25
2023-05-21T19:37:40.093Z,3.78
2023-05-21T19:40:08.013Z,3.80
2023-05-21T19:42:35.002Z,3.75
2023-05-21T19:45:02.069Z,4.97
2023-05-21T19:47:30.886Z,3.80
2023-05-21T19:49:57.873Z,3.40
2023-05-21T19:52:24.883Z,3.92
2023-05-21T19:54:51.996Z,2.80
2023-05-21T19:57:19.158Z,2.88
2023-05-21T19:59:46.152Z,3.13
2023-05-21T20:02:15.231Z,3.15
2023-05-21T20:04:42.177Z,2.83
2023-05-21T20:07:09.178Z,3.00
2023-05-21T20:09:36.196Z,3.83
2023-05-21T20:12:03.568Z,3.58
2023-05-21T20:14:33.616Z,3.47
2023-05-21T20:17:05.829Z,4.22
2023-05-21T20:19:33.001Z,4.18
2023-05-21T20:22:00.064Z,4.03
2023-05-21T20:24:27.023Z,3.85
2023-05-21T20:26:55.020Z,3.30
2023-05-21T20:29:21.961Z,3.60
2023-05-21T20:31:48.897Z,3.63
2023-05-21T20:34:17.789Z,3.20
2023-05-21T20:36:44.860Z,2.92
2023-05-21T20:39:12.221Z,2.90
2023-05-21T20:41:39.645Z,3.00
2023-05-21T20:44:06.919Z,2.60
2023-05-21T20:46:37.996Z,3.00
2023-05-21T20:49:05.374Z,3.15
2023-05-21T20:51:32.394Z,3.28
2023-05-21T20:53:59.931Z,3.13
2023-05-21T20:56:40.921Z,2.90
2023-05-21T20:59:11.091Z,2.85
2023-05-21T21:01:39.412Z,2.80
2023-05-21T21:04:06.501Z,3.00
2023-05-21T21:06:34.380Z,2.97
2023-05-21T21:09:01.355Z,2.95
2023-05-21T21:11:28.353Z,2.42
2023-05-21T21:13:55.596Z,2.83
2023-05-21T21:16:22.665Z,3.28
2023-05-21T21:18:49.720Z,3.30
2023-05-21T21:21:16.696Z,3.17
2023-05-21T21:23:43.756Z,3.10
2023-05-21T21:26:10.689Z,3.10
2023-05-21T21:28:37.958Z,3.13
2023-05-21T21:31:05.014Z,3.05
2023-05-21T21:33:32.403Z,3.22
2023-05-21T21:36:00.569Z,3.30
2023-05-21T21:38:27.560Z,3.13
2023-05-21T21:40:54.804Z,3.10
2023-05-21T21:43:21.732Z,3.15
2023-05-21T21:45:48.744Z,3.33
2023-05-21T21:48:16.634Z,4.00
2023-05-21T21:50:43.532Z,4.20
2023-05-21T21:53:12.764Z,4.28
2023-05-21T21:55:39.776Z,4.55
2023-05-21T21:58:07.119Z,5.10
2023-05-21T22:00:34.085Z,4.82
2023-05-21T22:03:01.221Z,4.38
2023-05-21T22:05:30.840Z,4.00
2023-05-21T22:07:57.932Z,4.10
2023-05-21T22:10:24.851Z,4.18
2023-05-21T22:12:51.758Z,4.10
2023-05-21T22:15:23.001Z,3.75
2023-05-21T22:17:50.282Z,3.67
2023-05-21T22:20:17.847Z,3.08
2023-05-21T22:22:46.161Z,3.30
2023-05-21T22:25:13.433Z,3.22
2023-05-21T22:27:40.649Z,3.38
2023-05-21T22:30:08.379Z,3.20
2023-05-21T22:32:35.341Z,3.63
2023-05-21T22:35:02.625Z,3.20
2023-05-21T22:37:29.677Z,3.13
2023-05-21T22:39:57.816Z,3.13
2023-05-21T22:42:25.850Z,3.20
2023-05-21T22:44:52.859Z,2.50
2023-05-21T22:47:24.004Z,2.90
2023-05-21T22:52:23.830Z,2.67
2023-05-21T22:54:54.800Z,2.70
2023-05-21T22:57:22.003Z,2.90
2023-05-21T22:59:48.953Z,2.40
2023-05-21T23:02:16.755Z,2.50
2023-05-21T23:04:44.701Z,2.50
2023-05-21T23:07:12.386Z,2.40
2023-05-21T23:09:39.520Z,2.28
2023-05-21T23:12:06.940Z,2.90
2023-05-21T23:14:34.186Z,2.58
2023-05-21T23:17:04.635Z,2.95
2023-05-21T23:19:33.004Z,2.70
2023-05-21T23:22:00.647Z,2.50
2023-05-21T23:24:29.663Z,2.40
2023-05-21T23:27:02.027Z,2.60
2023-05-21T23:29:30.422Z,2.70
2023-05-21T23:31:57.655Z,2.70
2023-05-21T23:34:25.132Z,2.42
2023-05-21T23:36:52.342Z,2.60
2023-05-21T23:39:19.302Z,2.47
2023-05-21T23:41:46.658Z,2.65
2023-05-21T23:44:13.682Z,2.45
2023-05-21T23:46:40.686Z,2.35
2023-05-21T23:49:07.657Z,2.53
2023-05-21T23:51:34.691Z,2.60
2023-05-21T23:54:01.696Z,2.50
2023-05-21T23:56:30.441Z,2.90
2023-05-21T23:58:57.520Z,2.65
